sensor_id;sensor_type;location;lat;lon;timestamp;pressure;altitude;pressure_sealevel;temperature;humidity
24788;BME280;12883;52.662;5.196;2023-04-10T00:01:00;102127.25;;;10.81;100.00
24788;BME280;12883;52.662;5.196;2023-04-10T00:03:26;102117.28;;;10.83;100.00
24788;BME280;12883;52.662;5.196;2023-04-10T00:05:51;102116.63;;;10.89;100.00
24788;BME280;12883;52.662;5.196;2023-04-10T00:08:21;102113.13;;;10.88;100.00
24788;BME280;12883;52.662;5.196;2023-04-10T00:10:47;102112.47;;;10.86;100.00
24788;BME280;12883;52.662;5.196;2023-04-10T00:13:13;102101.69;;;10.88;100.00
24788;BME280;12883;52.662;5.196;2023-04-10T00:15:39;102104.84;;;10.83;100.00
24788;BME280;12883;52.662;5.196;2023-04-10T00:18:04;102094.72;;;10.87;100.00
24788;BME280;12883;52.662;5.196;2023-04-10T00:20:30;102091.91;;;10.80;100.00
24788;BME280;12883;52.662;5.196;2023-04-10T00:22:55;102079.13;;;10.84;100.00
24788;BME280;12883;52.662;5.196;2023-04-10T00:25:20;102073.63;;;10.85;100.00
24788;BME280;12883;52.662;5.196;2023-04-10T00:27:47;102066.53;;;10.86;100.00
24788;BME280;12883;52.662;5.196;2023-04-10T00:30:12;102073.47;;;10.87;100.00
24788;BME280;12883;52.662;5.196;2023-04-10T00:32:38;102022.78;;;10.50;100.00
24788;BME280;12883;52.662;5.196;2023-04-10T00:35:03;102072.50;;;10.80;100.00
24788;BME280;12883;52.662;5.196;2023-04-10T00:37:29;102059.56;;;10.77;100.00
24788;BME280;12883;52.662;5.196;2023-04-10T00:39:54;102057.56;;;10.71;100.00
24788;BME280;12883;52.662;5.196;2023-04-10T00:42:20;102041.34;;;10.66;100.00
24788;BME280;12883;52.662;5.196;2023-04-10T00:44:45;102056.59;;;10.72;100.00
24788;BME280;12883;52.662;5.196;2023-04-10T00:47:12;102014.84;;;10.42;100.00
24788;BME280;12883;52.662;5.196;2023-04-10T00:49:38;102028.25;;;10.56;100.00
24788;BME280;12883;52.662;5.196;2023-04-10T00:52:04;102052.63;;;10.68;100.00
24788;BME280;12883;52.662;5.196;2023-04-10T00:54:30;102066.88;;;10.67;100.00
24788;BME280;12883;52.662;5.196;2023-04-10T00:56:57;102057.28;;;10.66;100.00
24788;BME280;12883;52.662;5.196;2023-04-10T00:59:23;102049.13;;;10.67;100.00
24788;BME280;12883;52.662;5.196;2023-04-10T01:01:48;102056.91;;;10.69;100.00
24788;BME280;12883;52.662;5.196;2023-04-10T01:04:14;102052.13;;;10.64;100.00
24788;BME280;12883;52.662;5.196;2023-04-10T01:09:57;102041.69;;;10.55;100.00
24788;BME280;12883;52.662;5.196;2023-04-10T01:15:08;102046.66;;;10.58;100.00
24788;BME280;12883;52.662;5.196;2023-04-10T01:17:43;102029.06;;;10.57;100.00
24788;BME280;12883;52.662;5.196;2023-04-10T01:20:23;102016.16;;;10.46;100.00
24788;BME280;12883;52.662;5.196;2023-04-10T01:25:45;102020.31;;;10.48;100.00
24788;BME280;12883;52.662;5.196;2023-04-10T01:30:46;102019.47;;;10.48;100.00
24788;BME280;12883;52.662;5.196;2023-04-10T01:33:15;102005.22;;;10.49;100.00
24788;BME280;12883;52.662;5.196;2023-04-10T01:35:43;101995.25;;;10.43;100.00
24788;BME280;12883;52.662;5.196;2023-04-10T01:38:15;102007.69;;;10.50;100.00
24788;BME280;12883;52.662;5.196;2023-04-10T01:40:43;102001.56;;;10.50;100.00
24788;BME280;12883;52.662;5.196;2023-04-10T01:43:15;101993.28;;;10.45;100.00
24788;BME280;12883;52.662;5.196;2023-04-10T01:45:41;101994.59;;;10.41;100.00
24788;BME280;12883;52.662;5.196;2023-04-10T01:48:08;101988.97;;;10.36;100.00
24788;BME280;12883;52.662;5.196;2023-04-10T01:50:34;101992.44;;;10.44;100.00
24788;BME280;12883;52.662;5.196;2023-04-10T01:53:02;101988.66;;;10.39;100.00
24788;BME280;12883;52.662;5.196;2023-04-10T01:55:28;101983.66;;;10.36;100.00
24788;BME280;12883;52.662;5.196;2023-04-10T01:57:53;101985.34;;;10.37;100.00
24788;BME280;12883;52.662;5.196;2023-04-10T02:00:19;101976.72;;;10.35;100.00
24788;BME280;12883;52.662;5.196;2023-04-10T02:02:45;101975.41;;;10.31;100.00
24788;BME280;12883;52.662;5.196;2023-04-10T02:05:10;101974.06;;;10.35;100.00
24788;BME280;12883;52.662;5.196;2023-04-10T02:10:12;101966.13;;;10.27;100.00
24788;BME280;12883;52.662;5.196;2023-04-10T02:12:47;101970.44;;;10.28;100.00
24788;BME280;12883;52.662;5.196;2023-04-10T02:15:19;101943.59;;;10.15;100.00
24788;BME280;12883;52.662;5.196;2023-04-10T02:17:46;101969.78;;;10.26;100.00
24788;BME280;12883;52.662;5.196;2023-04-10T02:20:13;101970.09;;;10.31;100.00
24788;BME280;12883;52.662;5.196;2023-04-10T02:22:40;101967.13;;;10.26;100.00
24788;BME280;12883;52.662;5.196;2023-04-10T02:25:08;101965.13;;;10.28;100.00
24788;BME280;12883;52.662;5.196;2023-04-10T02:27:35;101953.53;;;10.21;100.00
24788;BME280;12883;52.662;5.196;2023-04-10T02:30:01;101970.78;;;10.25;100.00
24788;BME280;12883;52.662;5.196;2023-04-10T02:32:27;101964.28;;;10.19;100.00
24788;BME280;12883;52.662;5.196;2023-04-10T02:34:53;101958.50;;;10.24;100.00
24788;BME280;12883;52.662;5.196;2023-04-10T02:37:18;101965.31;;;10.26;100.00
24788;BME280;12883;52.662;5.196;2023-04-10T02:39:44;101959.81;;;10.28;100.00
24788;BME280;12883;52.662;5.196;2023-04-10T02:42:10;101955.19;;;10.14;100.00
24788;BME280;12883;52.662;5.196;2023-04-10T02:44:36;101955.19;;;10.22;100.00
24788;BME280;12883;52.662;5.196;2023-04-10T02:47:01;101963.13;;;10.22;100.00
24788;BME280;12883;52.662;5.196;2023-04-10T02:49:26;101964.81;;;10.23;100.00
24788;BME280;12883;52.662;5.196;2023-04-10T02:51:52;101961.84;;;10.18;100.00
24788;BME280;12883;52.662;5.196;2023-04-10T02:54:17;101967.94;;;10.18;100.00
24788;BME280;12883;52.662;5.196;2023-04-10T02:56:42;101977.91;;;10.16;100.00
24788;BME280;12883;52.662;5.196;2023-04-10T02:59:08;101967.13;;;10.18;100.00
24788;BME280;12883;52.662;5.196;2023-04-10T03:01:33;101967.31;;;10.16;100.00
24788;BME280;12883;52.662;5.196;2023-04-10T03:03:58;101969.47;;;10.13;100.00
24788;BME280;12883;52.662;5.196;2023-04-10T03:06:24;101951.19;;;10.02;100.00
24788;BME280;12883;52.662;5.196;2023-04-10T03:08:52;101934.00;;;9.90;100.00
24788;BME280;12883;52.662;5.196;2023-04-10T03:11:17;101960.16;;;10.09;100.00
24788;BME280;12883;52.662;5.196;2023-04-10T03:13:43;101954.88;;;10.09;100.00
24788;BME280;12883;52.662;5.196;2023-04-10T03:16:08;101952.91;;;10.11;100.00
24788;BME280;12883;52.662;5.196;2023-04-10T03:18:33;101955.84;;;10.16;100.00
24788;BME280;12883;52.662;5.196;2023-04-10T03:20:59;101957.19;;;10.12;100.00
24788;BME280;12883;52.662;5.196;2023-04-10T03:23:26;101957.34;;;10.10;100.00
24788;BME280;12883;52.662;5.196;2023-04-10T03:25:51;101958.50;;;10.08;100.00
24788;BME280;12883;52.662;5.196;2023-04-10T03:28:20;101950.41;;;10.09;100.00
24788;BME280;12883;52.662;5.196;2023-04-10T03:30:46;101941.94;;;10.14;100.00
24788;BME280;12883;52.662;5.196;2023-04-10T03:33:12;101929.69;;;10.05;100.00
24788;BME280;12883;52.662;5.196;2023-04-10T03:35:37;101935.66;;;10.07;100.00
24788;BME280;12883;52.662;5.196;2023-04-10T03:38:02;101925.03;;;10.07;100.00
24788;BME280;12883;52.662;5.196;2023-04-10T03:40:27;101925.03;;;10.07;100.00
24788;BME280;12883;52.662;5.196;2023-04-10T03:42:53;101911.78;;;9.99;100.00
24788;BME280;12883;52.662;5.196;2023-04-10T03:45:18;101923.53;;;10.12;100.00
24788;BME280;12883;52.662;5.196;2023-04-10T03:47:44;101914.44;;;10.07;100.00
24788;BME280;12883;52.662;5.196;2023-04-10T03:50:09;101907.31;;;10.15;100.00
24788;BME280;12883;52.662;5.196;2023-04-10T03:52:35;101898.84;;;10.12;100.00
24788;BME280;12883;52.662;5.196;2023-04-10T03:55:00;101901.81;;;10.09;100.00
24788;BME280;12883;52.662;5.196;2023-04-10T03:57:25;101904.00;;;10.05;100.00
24788;BME280;12883;52.662;5.196;2023-04-10T03:59:51;101896.34;;;10.02;100.00
24788;BME280;12883;52.662;5.196;2023-04-10T04:02:16;101904.31;;;10.02;100.00
24788;BME280;12883;52.662;5.196;2023-04-10T04:04:42;101895.53;;;9.94;100.00
24788;BME280;12883;52.662;5.196;2023-04-10T04:07:07;101901.34;;;10.05;100.00
24788;BME280;12883;52.662;5.196;2023-04-10T04:09:33;101897.00;;;10.12;100.00
24788;BME280;12883;52.662;5.196;2023-04-10T04:11:58;101888.91;;;10.06;100.00
24788;BME280;12883;52.662;5.196;2023-04-10T04:14:23;101892.56;;;10.13;100.00
24788;BME280;12883;52.662;5.196;2023-04-10T04:16:49;101892.06;;;10.09;100.00
24788;BME280;12883;52.662;5.196;2023-04-10T04:19:15;101874.50;;;10.08;100.00
24788;BME280;12883;52.662;5.196;2023-04-10T04:21:40;101858.41;;;9.94;100.00
24788;BME280;12883;52.662;5.196;2023-04-10T04:24:05;101881.94;;;10.13;100.00
24788;BME280;12883;52.662;5.196;2023-04-10T04:26:31;101888.56;;;10.17;100.00
24788;BME280;12883;52.662;5.196;2023-04-10T04:28:57;101870.16;;;10.15;100.00
24788;BME280;12883;52.662;5.196;2023-04-10T04:31:22;101867.19;;;10.10;100.00
24788;BME280;12883;52.662;5.196;2023-04-10T04:33:48;101868.69;;;10.13;100.00
24788;BME280;12883;52.662;5.196;2023-04-10T04:36:13;101861.84;;;10.18;100.00
24788;BME280;12883;52.662;5.196;2023-04-10T04:38:39;101875.00;;;10.12;100.00
24788;BME280;12883;52.662;5.196;2023-04-10T04:41:04;101864.69;;;10.17;100.00
24788;BME280;12883;52.662;5.196;2023-04-10T04:43:30;101864.38;;;10.12;100.00
24788;BME280;12883;52.662;5.196;2023-04-10T04:45:55;101865.19;;;10.12;100.00
24788;BME280;12883;52.662;5.196;2023-04-10T04:48:21;101860.06;;;10.11;100.00
24788;BME280;12883;52.662;5.196;2023-04-10T04:50:46;101866.72;;;10.07;100.00
24788;BME280;12883;52.662;5.196;2023-04-10T04:53:12;101863.72;;;10.10;100.00
24788;BME280;12883;52.662;5.196;2023-04-10T04:55:37;101862.72;;;10.11;100.00
24788;BME280;12883;52.662;5.196;2023-04-10T04:58:03;101823.03;;;9.71;100.00
24788;BME280;12883;52.662;5.196;2023-04-10T05:00:28;101858.38;;;10.02;100.00
24788;BME280;12883;52.662;5.196;2023-04-10T05:02:53;101815.06;;;9.79;100.00
24788;BME280;12883;52.662;5.196;2023-04-10T05:05:19;101858.91;;;10.05;100.00
24788;BME280;12883;52.662;5.196;2023-04-10T05:07:44;101856.09;;;10.07;100.00
24788;BME280;12883;52.662;5.196;2023-04-10T05:10:10;101846.50;;;10.06;100.00
24788;BME280;12883;52.662;5.196;2023-04-10T05:12:35;101857.75;;;10.08;100.00
24788;BME280;12883;52.662;5.196;2023-04-10T05:15:00;101849.63;;;10.09;100.00
24788;BME280;12883;52.662;5.196;2023-04-10T05:17:26;101851.16;;;10.04;100.00
24788;BME280;12883;52.662;5.196;2023-04-10T05:19:51;101839.19;;;10.00;100.00
24788;BME280;12883;52.662;5.196;2023-04-10T05:22:16;101856.94;;;10.07;100.00
24788;BME280;12883;52.662;5.196;2023-04-10T05:24:42;101838.53;;;10.06;100.00
24788;BME280;12883;52.662;5.196;2023-04-10T05:27:07;101849.75;;;10.16;100.00
24788;BME280;12883;52.662;5.196;2023-04-10T05:29:33;101866.34;;;10.18;100.00
24788;BME280;12883;52.662;5.196;2023-04-10T05:31:59;101849.75;;;10.16;100.00
24788;BME280;12883;52.662;5.196;2023-04-10T05:34:24;101834.06;;;10.06;100.00
24788;BME280;12883;52.662;5.196;2023-04-10T05:36:49;101854.38;;;10.22;100.00
24788;BME280;12883;52.662;5.196;2023-04-10T05:39:15;101856.34;;;10.28;100.00
24788;BME280;12883;52.662;5.196;2023-04-10T05:41:40;101867.66;;;10.30;100.00
24788;BME280;12883;52.662;5.196;2023-04-10T05:44:06;101862.16;;;10.31;100.00
24788;BME280;12883;52.662;5.196;2023-04-10T05:46:31;101813.00;;;10.13;100.00
24788;BME280;12883;52.662;5.196;2023-04-10T05:48:57;101806.34;;;10.17;100.00
24788;BME280;12883;52.662;5.196;2023-04-10T05:51:22;101854.94;;;10.48;100.00
24788;BME280;12883;52.662;5.196;2023-04-10T05:53:49;101854.63;;;10.51;100.00
24788;BME280;12883;52.662;5.196;2023-04-10T05:56:14;101849.59;;;10.56;100.00
24788;BME280;12883;52.662;5.196;2023-04-10T05:58:40;101846.13;;;10.55;100.00
24788;BME280;12883;52.662;5.196;2023-04-10T06:01:05;101845.66;;;10.52;100.00
24788;BME280;12883;52.662;5.196;2023-04-10T06:03:30;101843.66;;;10.54;100.00
24788;BME280;12883;52.662;5.196;2023-04-10T06:05:56;101857.56;;;10.56;100.00
24788;BME280;12883;52.662;5.196;2023-04-10T06:08:22;101840.63;;;10.65;100.00
24788;BME280;12883;52.662;5.196;2023-04-10T06:10:47;101842.47;;;10.56;100.00
24788;BME280;12883;52.662;5.196;2023-04-10T06:13:13;101846.72;;;10.65;100.00
24788;BME280;12883;52.662;5.196;2023-04-10T06:15:41;101838.91;;;10.72;100.00
24788;BME280;12883;52.662;5.196;2023-04-10T06:18:07;101829.09;;;10.72;100.00
24788;BME280;12883;52.662;5.196;2023-04-10T06:20:32;101836.25;;;10.72;100.00
24788;BME280;12883;52.662;5.196;2023-04-10T06:22:58;101787.31;;;10.44;100.00
24788;BME280;12883;52.662;5.196;2023-04-10T06:25:23;101817.47;;;10.73;100.00
24788;BME280;12883;52.662;5.196;2023-04-10T06:27:49;101816.69;;;10.73;100.00
24788;BME280;12883;52.662;5.196;2023-04-10T06:30:15;101818.31;;;10.74;100.00
24788;BME280;12883;52.662;5.196;2023-04-10T06:32:40;101806.22;;;10.71;100.00
24788;BME280;12883;52.662;5.196;2023-04-10T06:35:06;101800.28;;;10.69;100.00
24788;BME280;12883;52.662;5.196;2023-04-10T06:37:31;101802.50;;;10.80;100.00
24788;BME280;12883;52.662;5.196;2023-04-10T06:42:31;101781.09;;;10.82;100.00
24788;BME280;12883;52.662;5.196;2023-04-10T06:44:56;101776.78;;;10.81;100.00
24788;BME280;12883;52.662;5.196;2023-04-10T06:47:22;101765.47;;;10.87;100.00
24788;BME280;12883;52.662;5.196;2023-04-10T06:49:47;101766.59;;;10.92;100.00
24788;BME280;12883;52.662;5.196;2023-04-10T06:52:13;101708.25;;;10.62;100.00
24788;BME280;12883;52.662;5.196;2023-04-10T06:54:38;101756.03;;;10.84;100.00
24788;BME280;12883;52.662;5.196;2023-04-10T06:57:03;101766.03;;;10.97;100.00
24788;BME280;12883;52.662;5.196;2023-04-10T06:59:29;101722.53;;;10.83;100.00
24788;BME280;12883;52.662;5.196;2023-04-10T07:01:55;101759.31;;;11.09;100.00
24788;BME280;12883;52.662;5.196;2023-04-10T07:04:21;101758.00;;;11.05;100.00
24788;BME280;12883;52.662;5.196;2023-04-10T07:06:46;101753.63;;;11.12;100.00
24788;BME280;12883;52.662;5.196;2023-04-10T07:09:11;101745.94;;;11.17;100.00
24788;BME280;12883;52.662;5.196;2023-04-10T07:11:37;101720.94;;;11.11;100.00
24788;BME280;12883;52.662;5.196;2023-04-10T07:14:02;101740.38;;;11.26;100.00
24788;BME280;12883;52.662;5.196;2023-04-10T07:16:27;101746.09;;;11.38;100.00
24788;BME280;12883;52.662;5.196;2023-04-10T07:18:53;101746.16;;;11.30;100.00
24788;BME280;12883;52.662;5.196;2023-04-10T07:21:19;101738.09;;;11.38;100.00
24788;BME280;12883;52.662;5.196;2023-04-10T07:23:44;101732.44;;;11.41;100.00
24788;BME280;12883;52.662;5.196;2023-04-10T07:26:09;101725.75;;;11.45;100.00
24788;BME280;12883;52.662;5.196;2023-04-10T07:28:35;101723.00;;;11.53;100.00
24788;BME280;12883;52.662;5.196;2023-04-10T07:31:00;101730.63;;;11.56;100.00
24788;BME280;12883;52.662;5.196;2023-04-10T07:33:26;101721.00;;;11.69;100.00
24788;BME280;12883;52.662;5.196;2023-04-10T07:35:51;101717.63;;;11.75;100.00
24788;BME280;12883;52.662;5.196;2023-04-10T07:38:17;101721.66;;;11.86;100.00
24788;BME280;12883;52.662;5.196;2023-04-10T07:40:43;101723.13;;;11.88;100.00
24788;BME280;12883;52.662;5.196;2023-04-10T07:43:08;101711.56;;;11.96;100.00
24788;BME280;12883;52.662;5.196;2023-04-10T07:45:33;101704.72;;;12.08;100.00
24788;BME280;12883;52.662;5.196;2023-04-10T07:47:59;101675.97;;;11.97;100.00
24788;BME280;12883;52.662;5.196;2023-04-10T07:50:24;101703.25;;;12.20;100.00
24788;BME280;12883;52.662;5.196;2023-04-10T07:52:50;101681.44;;;12.10;100.00
24788;BME280;12883;52.662;5.196;2023-04-10T07:55:15;101698.41;;;12.30;100.00
24788;BME280;12883;52.662;5.196;2023-04-10T07:57:40;101697.75;;;12.21;100.00
24788;BME280;12883;52.662;5.196;2023-04-10T08:00:06;101702.94;;;12.29;100.00
24788;BME280;12883;52.662;5.196;2023-04-10T08:02:31;101698.41;;;12.30;100.00
24788;BME280;12883;52.662;5.196;2023-04-10T08:04:57;101653.09;;;12.02;100.00
24788;BME280;12883;52.662;5.196;2023-04-10T08:07:22;101701.09;;;12.30;100.00
24788;BME280;12883;52.662;5.196;2023-04-10T08:09:47;101693.25;;;12.43;100.00
24788;BME280;12883;52.662;5.196;2023-04-10T08:12:13;101687.56;;;12.46;100.00
24788;BME280;12883;52.662;5.196;2023-04-10T08:14:38;101681.22;;;12.47;100.00
24788;BME280;12883;52.662;5.196;2023-04-10T08:17:03;101681.84;;;12.49;100.00
24788;BME280;12883;52.662;5.196;2023-04-10T08:19:29;101667.59;;;12.56;100.00
24788;BME280;12883;52.662;5.196;2023-04-10T08:21:54;101664.97;;;12.63;100.00
24788;BME280;12883;52.662;5.196;2023-04-10T08:24:20;101658.88;;;12.69;100.00
24788;BME280;12883;52.662;5.196;2023-04-10T08:26:47;101612.88;;;12.54;100.00
24788;BME280;12883;52.662;5.196;2023-04-10T08:29:12;101646.44;;;12.76;100.00
24788;BME280;12883;52.662;5.196;2023-04-10T08:31:37;101642.84;;;12.83;100.00
24788;BME280;12883;52.662;5.196;2023-04-10T08:34:03;101650.13;;;12.96;100.00
24788;BME280;12883;52.662;5.196;2023-04-10T08:36:28;101654.06;;;13.00;100.00
24788;BME280;12883;52.662;5.196;2023-04-10T08:38:54;101652.25;;;13.07;100.00
24788;BME280;12883;52.662;5.196;2023-04-10T08:41:19;101606.84;;;12.94;100.00
24788;BME280;12883;52.662;5.196;2023-04-10T08:43:45;101638.94;;;13.07;100.00
24788;BME280;12883;52.662;5.196;2023-04-10T08:46:11;101621.34;;;13.12;100.00
24788;BME280;12883;52.662;5.196;2023-04-10T08:48:38;101611.28;;;13.08;100.00
24788;BME280;12883;52.662;5.196;2023-04-10T08:51:16;101616.88;;;13.26;100.00
24788;BME280;12883;52.662;5.196;2023-04-10T08:53:43;101618.69;;;13.19;100.00
24788;BME280;12883;52.662;5.196;2023-04-10T08:56:14;101616.47;;;13.22;100.00
24788;BME280;12883;52.662;5.196;2023-04-10T08:58:41;101609.69;;;13.20;100.00
24788;BME280;12883;52.662;5.196;2023-04-10T09:01:08;101611.47;;;13.13;100.00
24788;BME280;12883;52.662;5.196;2023-04-10T09:03:34;101608.44;;;13.16;100.00
24788;BME280;12883;52.662;5.196;2023-04-10T09:06:03;101598.56;;;13.10;100.00
24788;BME280;12883;52.662;5.196;2023-04-10T09:08:29;101605.34;;;13.12;100.00
24788;BME280;12883;52.662;5.196;2023-04-10T09:10:56;101610.94;;;13.24;100.00
24788;BME280;12883;52.662;5.196;2023-04-10T09:13:37;101587.31;;;13.14;100.00
24788;BME280;12883;52.662;5.196;2023-04-10T09:16:03;101590.22;;;13.26;100.00
24788;BME280;12883;52.662;5.196;2023-04-10T09:18:49;101590.66;;;13.23;100.00
24788;BME280;12883;52.662;5.196;2023-04-10T09:21:18;101588.22;;;13.28;100.00
24788;BME280;12883;52.662;5.196;2023-04-10T09:23:44;101574.25;;;13.26;100.00
24788;BME280;12883;52.662;5.196;2023-04-10T09:26:42;101583.50;;;13.30;100.00
24788;BME280;12883;52.662;5.196;2023-04-10T09:29:08;101575.53;;;13.36;100.00
24788;BME280;12883;52.662;5.196;2023-04-10T09:31:36;101566.72;;;13.36;100.00
24788;BME280;12883;52.662;5.196;2023-04-10T09:34:18;101569.81;;;13.46;100.00
24788;BME280;12883;52.662;5.196;2023-04-10T09:37:01;101563.28;;;13.55;100.00
24788;BME280;12883;52.662;5.196;2023-04-10T09:39:33;101564.31;;;13.54;100.00
24788;BME280;12883;52.662;5.196;2023-04-10T09:41:58;101501.84;;;13.22;100.00
24788;BME280;12883;52.662;5.196;2023-04-10T09:44:35;101550.78;;;13.62;100.00
24788;BME280;12883;52.662;5.196;2023-04-10T09:52:36;101523.97;;;13.70;100.00
24788;BME280;12883;52.662;5.196;2023-04-10T09:55:06;101528.50;;;13.82;100.00
24788;BME280;12883;52.662;5.196;2023-04-10T09:57:34;101522.34;;;13.88;100.00
24788;BME280;12883;52.662;5.196;2023-04-10T10:00:02;101512.06;;;13.85;100.00
24788;BME280;12883;52.662;5.196;2023-04-10T10:02:30;101515.16;;;13.89;100.00
24788;BME280;12883;52.662;5.196;2023-04-10T10:04:57;101509.84;;;13.95;100.00
24788;BME280;12883;52.662;5.196;2023-04-10T10:07:25;101500.19;;;14.01;100.00
24788;BME280;12883;52.662;5.196;2023-04-10T10:09:51;101506.56;;;14.00;100.00
24788;BME280;12883;52.662;5.196;2023-04-10T10:12:47;101504.31;;;13.97;100.00
24788;BME280;12883;52.662;5.196;2023-04-10T10:15:30;101496.31;;;13.97;100.00
24788;BME280;12883;52.662;5.196;2023-04-10T10:20:32;101482.53;;;14.13;100.00
24788;BME280;12883;52.662;5.196;2023-04-10T10:23:01;101477.84;;;14.08;100.00
24788;BME280;12883;52.662;5.196;2023-04-10T10:25:27;101470.22;;;14.05;100.00
24788;BME280;12883;52.662;5.196;2023-04-10T10:27:54;101471.84;;;14.06;100.00
24788;BME280;12883;52.662;5.196;2023-04-10T10:30:19;101445.56;;;14.10;100.00
24788;BME280;12883;52.662;5.196;2023-04-10T10:32:46;101464.06;;;14.31;100.00
24788;BME280;12883;52.662;5.196;2023-04-10T10:35:12;101443.56;;;14.25;100.00
24788;BME280;12883;52.662;5.196;2023-04-10T10:37:38;101438.22;;;14.25;100.00
24788;BME280;12883;52.662;5.196;2023-04-10T10:40:06;101435.09;;;14.15;100.00
24788;BME280;12883;52.662;5.196;2023-04-10T10:42:40;101438.63;;;14.22;100.00
24788;BME280;12883;52.662;5.196;2023-04-10T10:45:11;101420.13;;;14.40;100.00
24788;BME280;12883;52.662;5.196;2023-04-10T10:47:46;101407.81;;;14.39;100.00
24788;BME280;12883;52.662;5.196;2023-04-10T10:50:13;101388.50;;;14.24;100.00
24788;BME280;12883;52.662;5.196;2023-04-10T10:52:48;101398.16;;;14.31;100.00
24788;BME280;12883;52.662;5.196;2023-04-10T10:57:48;101388.66;;;14.55;100.00
24788;BME280;12883;52.662;5.196;2023-04-10T11:00:15;101367.72;;;14.45;100.00
24788;BME280;12883;52.662;5.196;2023-04-10T11:02:40;101376.53;;;14.59;100.00
24788;BME280;12883;52.662;5.196;2023-04-10T11:05:06;101359.06;;;14.50;100.00
24788;BME280;12883;52.662;5.196;2023-04-10T11:08:11;101365.84;;;14.59;100.00
24788;BME280;12883;52.662;5.196;2023-04-10T11:11:01;101378.09;;;14.73;100.00
24788;BME280;12883;52.662;5.196;2023-04-10T11:13:27;101352.69;;;14.57;100.00
24788;BME280;12883;52.662;5.196;2023-04-10T11:15:54;101360.66;;;14.64;100.00
24788;BME280;12883;52.662;5.196;2023-04-10T11:21:13;101346.66;;;14.68;100.00
24788;BME280;12883;52.662;5.196;2023-04-10T11:31:45;101345.66;;;14.63;100.00
24788;BME280;12883;52.662;5.196;2023-04-10T11:34:11;101344.75;;;14.82;100.00
24788;BME280;12883;52.662;5.196;2023-04-10T11:36:38;101338.38;;;14.82;100.00
24788;BME280;12883;52.662;5.196;2023-04-10T11:39:06;101311.25;;;14.79;100.00
24788;BME280;12883;52.662;5.196;2023-04-10T11:41:41;101316.56;;;14.85;100.00
24788;BME280;12883;52.662;5.196;2023-04-10T11:44:10;101284.34;;;14.74;100.00
24788;BME280;12883;52.662;5.196;2023-04-10T11:46:41;101316.94;;;14.95;100.00
24788;BME280;12883;52.662;5.196;2023-04-10T11:49:08;101280.16;;;14.91;100.00
24788;BME280;12883;52.662;5.196;2023-04-10T11:51:34;101281.66;;;15.11;100.00
24788;BME280;12883;52.662;5.196;2023-04-10T11:54:10;101274.97;;;15.20;100.00
24788;BME280;12883;52.662;5.196;2023-04-10T11:56:37;101275.75;;;15.27;100.00
24788;BME280;12883;52.662;5.196;2023-04-10T11:59:04;101268.47;;;15.16;100.00
24788;BME280;12883;52.662;5.196;2023-04-10T12:01:32;101263.88;;;15.23;100.00
24788;BME280;12883;52.662;5.196;2023-04-10T12:03:57;101255.19;;;15.34;100.00
24788;BME280;12883;52.662;5.196;2023-04-10T12:06:23;101236.41;;;15.10;100.00
24788;BME280;12883;52.662;5.196;2023-04-10T12:08:48;101249.22;;;15.32;100.00
24788;BME280;12883;52.662;5.196;2023-04-10T12:11:20;101196.09;;;15.11;100.00
24788;BME280;12883;52.662;5.196;2023-04-10T12:13:46;101232.59;;;15.24;100.00
24788;BME280;12883;52.662;5.196;2023-04-10T12:16:15;101208.31;;;15.25;100.00
24788;BME280;12883;52.662;5.196;2023-04-10T12:18:40;101218.59;;;15.28;100.00
24788;BME280;12883;52.662;5.196;2023-04-10T12:21:06;101223.09;;;15.34;100.00
24788;BME280;12883;52.662;5.196;2023-04-10T12:23:32;101192.72;;;15.22;100.00
24788;BME280;12883;52.662;5.196;2023-04-10T12:28:35;101158.00;;;14.98;100.00
24788;BME280;12883;52.662;5.196;2023-04-10T12:31:02;101201.44;;;15.11;100.00
24788;BME280;12883;52.662;5.196;2023-04-10T12:33:28;101185.13;;;14.95;100.00
24788;BME280;12883;52.662;5.196;2023-04-10T12:35:53;101185.38;;;15.18;100.00
24788;BME280;12883;52.662;5.196;2023-04-10T12:38:35;101176.03;;;15.02;100.00
24788;BME280;12883;52.662;5.196;2023-04-10T12:41:01;101173.97;;;15.04;100.00
24788;BME280;12883;52.662;5.196;2023-04-10T12:43:37;101174.06;;;14.91;100.00
24788;BME280;12883;52.662;5.196;2023-04-10T12:46:04;101167.16;;;14.84;100.00
24788;BME280;12883;52.662;5.196;2023-04-10T12:48:30;101153.56;;;14.85;100.00
24788;BME280;12883;52.662;5.196;2023-04-10T12:50:55;101151.03;;;14.73;100.00
24788;BME280;12883;52.662;5.196;2023-04-10T12:53:21;101161.38;;;14.87;100.00
24788;BME280;12883;52.662;5.196;2023-04-10T12:56:03;101142.94;;;14.79;100.00
24788;BME280;12883;52.662;5.196;2023-04-10T12:58:29;101135.75;;;14.80;100.00
24788;BME280;12883;52.662;5.196;2023-04-10T13:01:02;101133.09;;;14.80;100.00
24788;BME280;12883;52.662;5.196;2023-04-10T13:03:28;101124.03;;;14.81;100.00
24788;BME280;12883;52.662;5.196;2023-04-10T13:05:54;101117.47;;;14.77;100.00
24788;BME280;12883;52.662;5.196;2023-04-10T13:08:20;101093.16;;;14.60;100.00
24788;BME280;12883;52.662;5.196;2023-04-10T13:10:46;101104.50;;;14.56;100.00
24788;BME280;12883;52.662;5.196;2023-04-10T13:13:12;101116.28;;;14.73;100.00
24788;BME280;12883;52.662;5.196;2023-04-10T13:15:38;101070.16;;;14.35;100.00
24788;BME280;12883;52.662;5.196;2023-04-10T13:18:03;101129.69;;;14.66;100.00
24788;BME280;12883;52.662;5.196;2023-04-10T13:20:36;101114.09;;;14.63;100.00